createdAt,value
2018-12-18T00:04:45.359Z,1.50
2018-12-18T00:09:39.747Z,1.70
2018-12-18T00:14:33.118Z,1.60
2018-12-18T00:19:27.525Z,1.60
2018-12-18T00:24:21.432Z,1.77
2018-12-18T00:29:15.367Z,1.47
2018-12-18T00:34:08.723Z,1.70
2018-12-18T00:39:03.108Z,2.03
2018-12-18T00:43:56.496Z,1.67
2018-12-18T00:48:50.873Z,1.70
2018-12-18T00:53:44.776Z,2.10
2018-12-18T00:58:38.641Z,1.50
2018-12-18T01:03:32.045Z,2.00
2018-12-18T01:08:26.457Z,2.23
2018-12-18T01:13:19.819Z,2.10
2018-12-18T01:18:14.230Z,2.20
2018-12-18T01:23:07.657Z,2.00
2018-12-18T01:28:02.062Z,2.30
2018-12-18T01:32:55.354Z,2.33
2018-12-18T01:37:48.758Z,2.13
2018-12-18T01:42:42.163Z,2.10
2018-12-18T01:47:36.549Z,2.67
2018-12-18T01:52:29.946Z,2.83
2018-12-18T01:57:24.345Z,3.17
2018-12-18T02:02:17.726Z,3.13
2018-12-18T02:07:11.148Z,3.50
2018-12-18T02:12:04.984Z,3.80
2018-12-18T02:16:58.365Z,3.60
2018-12-18T02:21:51.753Z,3.77
2018-12-18T02:26:45.145Z,4.20
2018-12-18T02:31:39.566Z,4.10
2018-12-18T02:36:32.959Z,4.37
2018-12-18T02:41:27.334Z,4.47
2018-12-18T02:46:20.714Z,4.00
2018-12-18T02:51:15.070Z,3.93
2018-12-18T02:56:08.475Z,4.10
2018-12-18T03:01:02.863Z,4.20
2018-12-18T03:05:56.263Z,4.20
2018-12-18T03:10:50.638Z,3.77
2018-12-18T03:15:44.001Z,4.13
2018-12-18T03:20:37.519Z,3.73
2018-12-18T03:25:31.899Z,3.70
2018-12-18T03:30:25.190Z,4.60
2018-12-18T03:35:18.573Z,4.00
2018-12-18T03:40:12.993Z,4.47
2018-12-18T03:45:06.506Z,3.80
2018-12-18T03:50:00.734Z,4.23
2018-12-18T03:54:55.136Z,4.47
2018-12-18T03:59:49.575Z,3.67
2018-12-18T04:04:42.940Z,3.83
2018-12-18T04:09:36.388Z,3.43
2018-12-18T04:14:29.798Z,3.87
2018-12-18T04:19:24.157Z,3.80
2018-12-18T04:24:18.020Z,4.07
2018-12-18T04:29:11.872Z,3.80
2018-12-18T04:34:05.769Z,3.53
2018-12-18T04:38:59.659Z,3.87
2018-12-18T04:43:53.025Z,3.80
2018-12-18T04:48:46.415Z,3.77
2018-12-18T04:53:40.315Z,3.77
2018-12-18T04:58:34.268Z,3.50
2018-12-18T05:03:28.091Z,3.80
2018-12-18T05:08:22.010Z,3.77
2018-12-18T05:13:15.382Z,3.33
2018-12-18T05:18:09.763Z,3.47
2018-12-18T05:23:03.567Z,3.70
2018-12-18T05:27:57.556Z,4.10
2018-12-18T05:32:50.945Z,3.93
2018-12-18T05:37:45.323Z,3.87
2018-12-18T05:42:38.781Z,3.37
2018-12-18T05:47:32.151Z,4.37
2018-12-18T05:52:26.017Z,4.13
2018-12-18T05:57:19.387Z,4.17
2018-12-18T06:02:13.852Z,4.03
2018-12-18T06:07:07.229Z,3.90
2018-12-18T06:12:00.584Z,4.67
2018-12-18T06:16:53.948Z,4.57
2018-12-18T06:21:48.295Z,4.93
2018-12-18T06:26:41.702Z,4.67
2018-12-18T06:31:36.102Z,4.93
2018-12-18T06:36:29.497Z,4.90
2018-12-18T06:41:23.889Z,4.70
2018-12-18T06:46:17.263Z,4.73
2018-12-18T06:51:10.674Z,4.67
2018-12-18T06:56:04.175Z,4.33
2018-12-18T07:00:58.526Z,3.43
2018-12-18T07:05:51.984Z,3.07
2018-12-18T07:10:46.233Z,3.00
2018-12-18T07:15:39.595Z,2.60
2018-12-18T07:20:33.996Z,2.97
2018-12-18T07:25:27.423Z,2.40
2018-12-18T07:30:21.746Z,2.33
2018-12-18T07:35:15.721Z,2.83
2018-12-18T07:40:09.540Z,2.50
2018-12-18T07:45:03.788Z,2.60
2018-12-18T07:49:57.333Z,2.43
2018-12-18T07:54:51.196Z,2.40
2018-12-18T07:59:45.113Z,2.23
2018-12-18T08:04:39.001Z,2.20
2018-12-18T08:09:32.895Z,1.97
2018-12-18T08:14:26.339Z,2.10
2018-12-18T08:19:20.694Z,2.80
2018-12-18T08:24:14.557Z,2.50
2018-12-18T08:29:08.449Z,2.50
2018-12-18T08:34:02.340Z,2.77
2018-12-18T08:38:56.245Z,2.30
2018-12-18T08:43:50.109Z,2.50
2018-12-18T08:48:44.077Z,2.47
2018-12-18T08:53:37.485Z,1.97
2018-12-18T08:58:31.786Z,2.30
2018-12-18T09:03:25.696Z,2.33
2018-12-18T09:08:19.569Z,2.40
2018-12-18T09:13:13.442Z,2.50
2018-12-18T09:18:07.374Z,2.27
2018-12-18T09:23:00.755Z,2.43
2018-12-18T09:27:55.172Z,2.87
2018-12-18T09:32:48.552Z,2.57
2018-12-18T09:37:43.218Z,2.23
2018-12-18T09:42:54.830Z,2.27
2018-12-18T09:47:49.161Z,2.20
2018-12-18T09:52:44.233Z,2.40
2018-12-18T09:57:55.548Z,1.97
2018-12-18T10:02:49.023Z,2.13
2018-12-18T10:07:43.328Z,2.10
2018-12-18T10:13:02.167Z,2.27
2018-12-18T10:17:55.581Z,2.20
2018-12-18T10:22:48.950Z,1.90
2018-12-18T10:27:42.427Z,2.10
2018-12-18T10:32:36.184Z,1.93
2018-12-18T10:37:30.061Z,2.00
2018-12-18T10:42:25.307Z,1.73
2018-12-18T10:47:18.876Z,2.30
2018-12-18T10:52:12.743Z,2.53
2018-12-18T10:57:06.179Z,2.30
2018-12-18T11:02:03.987Z,2.33
2018-12-18T11:06:57.772Z,1.43
2018-12-18T11:11:51.470Z,2.33
2018-12-18T11:16:44.858Z,1.70
2018-12-18T11:21:38.263Z,2.30
2018-12-18T11:26:31.691Z,2.00
2018-12-18T11:31:25.935Z,1.80
2018-12-18T11:36:19.339Z,2.00
2018-12-18T11:41:13.717Z,2.23
2018-12-18T11:46:07.617Z,1.80
2018-12-18T11:51:01.496Z,1.87
2018-12-18T11:55:54.887Z,1.97
2018-12-18T12:00:49.253Z,1.57
2018-12-18T12:05:43.199Z,2.10
2018-12-18T12:10:37.110Z,1.90
2018-12-18T12:15:30.554Z,1.80
2018-12-18T12:20:23.880Z,1.70
2018-12-18T12:25:17.724Z,1.53
2018-12-18T12:30:11.563Z,1.67
2018-12-18T12:35:05.500Z,1.83
2018-12-18T12:39:59.360Z,2.10
2018-12-18T12:44:53.222Z,1.53
2018-12-18T12:49:47.157Z,1.70
2018-12-18T12:54:41.050Z,2.17
2018-12-18T12:59:34.913Z,2.00
2018-12-18T13:04:28.824Z,1.67
2018-12-18T13:09:22.702Z,1.77
2018-12-18T13:14:16.638Z,1.57
2018-12-18T13:19:10.477Z,2.00
2018-12-18T13:24:04.369Z,1.70
2018-12-18T13:28:58.258Z,2.03
2018-12-18T13:33:52.187Z,1.30
2018-12-18T13:38:46.154Z,1.90
2018-12-18T13:43:39.991Z,1.40
2018-12-18T13:48:34.038Z,1.67
2018-12-18T13:53:27.737Z,1.80
2018-12-18T13:58:21.658Z,1.50
2018-12-18T14:03:15.070Z,1.47
2018-12-18T14:08:09.398Z,1.30
2018-12-18T14:13:04.343Z,1.30
2018-12-18T14:17:58.187Z,1.37
2018-12-18T14:22:51.605Z,1.10
2018-12-18T14:27:46.107Z,1.50
2018-12-18T14:32:39.904Z,1.37
2018-12-18T14:37:33.811Z,1.40
2018-12-18T14:42:27.683Z,1.30
2018-12-18T14:47:21.060Z,1.47
2018-12-18T14:52:15.428Z,1.40
2018-12-18T14:57:08.847Z,1.00
2018-12-18T15:02:03.224Z,0.90
2018-12-18T15:07:02.657Z,1.20
2018-12-18T15:11:51.641Z,1.17
2018-12-18T15:16:46.075Z,1.40
2018-12-18T15:21:39.821Z,1.33
2018-12-18T15:26:33.190Z,1.00
2018-12-18T15:31:27.651Z,1.10
2018-12-18T15:36:21.037Z,1.27
2018-12-18T15:41:17.860Z,0.93
2018-12-18T15:46:11.250Z,1.00
2018-12-18T15:51:05.186Z,1.10
2018-12-18T15:55:59.000Z,1.20
2018-12-18T16:00:52.385Z,1.10
2018-12-18T16:05:46.207Z,1.10
2018-12-18T16:10:39.644Z,1.10
2018-12-18T16:15:33.524Z,1.03
2018-12-18T16:20:28.312Z,1.17
2018-12-18T16:25:21.727Z,1.27
2018-12-18T16:30:15.214Z,1.17
2018-12-18T16:35:09.175Z,1.40
2018-12-18T16:40:02.963Z,1.10
2018-12-18T16:44:56.345Z,1.10
2018-12-18T16:49:49.709Z,1.00
2018-12-18T16:54:43.680Z,1.23
2018-12-18T16:59:37.106Z,1.40
2018-12-18T17:04:30.521Z,1.27
2018-12-18T17:09:23.956Z,1.13
2018-12-18T17:14:17.326Z,1.53
2018-12-18T17:19:11.038Z,1.20
2018-12-18T17:24:04.423Z,1.20
2018-12-18T17:28:58.821Z,1.63
2018-12-18T17:33:52.273Z,1.27
2018-12-18T17:38:46.627Z,1.33
2018-12-18T17:43:40.083Z,1.17
2018-12-18T17:48:34.385Z,1.37
2018-12-18T17:53:27.774Z,1.37
2018-12-18T17:58:21.179Z,1.20
2018-12-18T18:03:15.116Z,2.33
2018-12-18T18:08:08.499Z,1.27
2018-12-18T18:13:02.526Z,1.10
2018-12-18T18:17:57.319Z,1.50
2018-12-18T18:22:51.616Z,1.60
2018-12-18T18:27:45.525Z,1.20
2018-12-18T18:32:39.438Z,1.30
2018-12-18T18:37:32.823Z,1.37
2018-12-18T18:42:27.229Z,1.53
2018-12-18T18:47:20.625Z,1.57
2018-12-18T18:52:14.024Z,1.37
2018-12-18T18:57:07.444Z,1.30
2018-12-18T19:02:00.800Z,1.20
2018-12-18T19:06:54.163Z,1.90
2018-12-18T19:11:48.555Z,1.43
2018-12-18T19:16:41.928Z,1.30
2018-12-18T19:21:36.309Z,1.23
2018-12-18T19:26:29.668Z,1.50
2018-12-18T19:31:24.057Z,1.33
2018-12-18T19:36:17.454Z,1.10
2018-12-18T19:41:11.851Z,1.50
2018-12-18T19:46:05.303Z,1.27
2018-12-18T19:50:58.674Z,1.60
2018-12-18T19:55:52.038Z,1.20
2018-12-18T20:00:46.383Z,1.53
2018-12-18T20:05:39.773Z,1.10
2018-12-18T20:10:33.197Z,1.30
2018-12-18T20:15:26.800Z,1.43
2018-12-18T20:20:20.913Z,1.60
2018-12-18T20:25:14.272Z,1.50
2018-12-18T20:30:07.836Z,1.50
2018-12-18T20:35:01.216Z,1.30
2018-12-18T20:39:55.440Z,1.30
2018-12-18T20:44:48.862Z,1.60
2018-12-18T20:49:42.232Z,1.30
2018-12-18T20:54:35.618Z,1.80
2018-12-18T20:59:30.303Z,1.70
2018-12-18T21:04:23.691Z,1.20
2018-12-18T21:09:17.787Z,1.37
2018-12-18T21:14:11.175Z,1.23
2018-12-18T21:19:04.577Z,1.30
2018-12-18T21:23:57.954Z,1.20
2018-12-18T21:28:51.452Z,1.40
2018-12-18T21:33:44.850Z,1.40
2018-12-18T21:38:38.249Z,1.30
2018-12-18T21:43:31.943Z,1.30
2018-12-18T21:48:25.356Z,1.13
2018-12-18T21:53:18.769Z,1.43
2018-12-18T21:58:12.631Z,1.27
2018-12-18T22:03:06.014Z,1.37
2018-12-18T22:08:01.393Z,1.53
2018-12-18T22:12:54.784Z,0.87
2018-12-18T22:17:48.179Z,0.97
2018-12-18T22:22:42.080Z,1.17
2018-12-18T22:27:36.196Z,0.97
2018-12-18T22:32:29.584Z,1.20
2018-12-18T22:37:23.015Z,1.37
2018-12-18T22:42:16.415Z,1.07
2018-12-18T22:47:09.856Z,1.10
2018-12-18T22:52:04.374Z,1.30
2018-12-18T22:56:57.772Z,1.10
2018-12-18T23:01:52.275Z,1.10
2018-12-18T23:06:45.688Z,1.33
2018-12-18T23:11:39.925Z,1.10
2018-12-18T23:16:33.304Z,1.30
2018-12-18T23:21:27.714Z,1.30
2018-12-18T23:26:21.083Z,1.37
2018-12-18T23:31:14.465Z,1.07
2018-12-18T23:36:07.861Z,1.20
2018-12-18T23:41:02.241Z,1.20
2018-12-18T23:45:55.604Z,1.10
2018-12-18T23:50:49.036Z,1.10
2018-12-18T23:55:42.416Z,1.30
